KOXD/OXD METAR and TAF weather

Enter ICAO airport designator
Station Type Date Time Source
KOXD METAR 2020/06/03 16:15 UTC NOAA

KOXD 031615Z AUTO 26010G16KT 10SM CLR 28/22 A2991 RMK AO2 T02810215


Station Type Date Time Source
KOXD Decoded METAR 2020/06/03 16:15 UTC NOAA

Station name not available
Jun 03, 2020 - 12:15 PM EDT / 2020.06.03 1615 UTC
Wind: from the W (260 degrees) at 12 MPH (10 KT) gusting to 18 MPH (16 KT):0
Visibility: 10 mile(s):0
Sky conditions: clear
Temperature: 82.6 F (28.1 C)
Dew Point: 70.7 F (21.5 C)
Relative Humidity: 67%
Pressure (altimeter): 29.91 in. Hg (1012 hPa)
ob: KOXD 031615Z AUTO 26010G16KT 10SM CLR 28/22 A2991 RMK AO2 T02810215
cycle: 16

Station Type Date Time Source
KOXD TAF UTC NOAA

Error!

Example: see airport list